createdAt,value
2023-02-13T00:01:26.090Z,69.38
2023-02-13T00:03:54.392Z,68.88
2023-02-13T00:06:24.184Z,68.50
2023-02-13T00:08:53.034Z,68.77
2023-02-13T00:11:22.012Z,68.76
2023-02-13T00:13:50.465Z,68.66
2023-02-13T00:16:18.552Z,68.58
2023-02-13T00:18:46.946Z,68.42
2023-02-13T00:21:15.313Z,68.54
2023-02-13T00:23:43.495Z,68.45
2023-02-13T00:26:14.637Z,68.79
2023-02-13T00:28:45.741Z,68.58
2023-02-13T00:31:19.520Z,67.97
2023-02-13T00:33:49.622Z,67.84
2023-02-13T00:36:20.651Z,68.46
2023-02-13T00:38:48.938Z,68.77
2023-02-13T00:41:17.739Z,68.46
2023-02-13T00:43:47.956Z,69.18
2023-02-13T00:46:17.738Z,69.15
2023-02-13T00:48:46.669Z,69.39
2023-02-13T00:51:14.953Z,69.54
2023-02-13T00:53:43.437Z,69.36
2023-02-13T00:56:12.228Z,69.42
2023-02-13T00:58:40.969Z,69.28
2023-02-13T01:01:09.405Z,69.38
2023-02-13T01:03:38.046Z,69.49
2023-02-13T01:06:07.349Z,69.50
2023-02-13T01:08:40.001Z,69.53
2023-02-13T01:11:09.072Z,69.67
2023-02-13T01:13:38.199Z,69.90
2023-02-13T01:16:07.296Z,69.43
2023-02-13T01:18:35.781Z,69.62
2023-02-13T01:21:06.921Z,69.46
2023-02-13T01:23:38.708Z,69.29
2023-02-13T01:26:09.462Z,69.20
2023-02-13T01:28:37.915Z,68.86
2023-02-13T01:31:06.502Z,69.12
2023-02-13T01:33:36.427Z,68.83
2023-02-13T01:36:14.411Z,69.06
2023-02-13T01:38:43.116Z,69.11
2023-02-13T01:41:12.015Z,69.39
2023-02-13T01:43:46.026Z,69.22
2023-02-13T01:46:16.598Z,69.76
2023-02-13T01:48:46.701Z,70.15
2023-02-13T01:51:21.407Z,70.14
2023-02-13T01:54:02.899Z,69.86
2023-02-13T01:56:44.083Z,70.20
2023-02-13T01:59:20.540Z,70.88
2023-02-13T02:01:49.608Z,70.62
2023-02-13T02:04:28.379Z,71.17
2023-02-13T02:07:01.704Z,71.70
2023-02-13T02:09:37.715Z,72.28
2023-02-13T02:12:33.445Z,72.37
2023-02-13T02:15:03.755Z,72.23
2023-02-13T02:17:33.568Z,72.40
2023-02-13T02:20:17.506Z,72.47
2023-02-13T02:23:16.289Z,72.24
2023-02-13T02:26:09.437Z,72.01
2023-02-13T02:29:06.988Z,71.97
2023-02-13T02:31:37.992Z,72.04
2023-02-13T02:34:29.954Z,71.99
2023-02-13T02:37:20.751Z,72.12
2023-02-13T02:39:55.286Z,71.69
2023-02-13T02:42:43.101Z,71.68
2023-02-13T02:45:23.156Z,71.78
2023-02-13T02:48:18.450Z,71.73
2023-02-13T02:51:21.224Z,71.42
2023-02-13T02:54:27.870Z,71.75
2023-02-13T02:57:06.693Z,70.98
2023-02-13T02:59:56.259Z,71.01
2023-02-13T03:02:43.780Z,71.13
2023-02-13T03:05:46.448Z,70.40
2023-02-13T03:08:36.730Z,70.19
2023-02-13T03:11:32.439Z,69.63
2023-02-13T03:14:04.310Z,69.84
2023-02-13T03:16:51.416Z,69.19
2023-02-13T03:19:52.657Z,69.33
2023-02-13T03:22:35.977Z,70.06
2023-02-13T03:25:34.632Z,70.25
2023-02-13T03:28:43.867Z,70.09
2023-02-13T03:31:23.674Z,70.95
2023-02-13T03:34:06.111Z,70.45
2023-02-13T03:37:05.510Z,71.74
2023-02-13T03:39:59.892Z,71.45
2023-02-13T03:42:29.083Z,71.57
2023-02-13T03:45:22.956Z,71.18
2023-02-13T03:47:57.168Z,70.78
2023-02-13T03:50:27.917Z,71.20
2023-02-13T03:53:07.454Z,71.89
2023-02-13T03:56:01.833Z,72.20
2023-02-13T03:58:56.712Z,71.80
2023-02-13T04:01:32.280Z,72.54
2023-02-13T04:04:19.482Z,73.00
2023-02-13T04:06:54.512Z,72.95
2023-02-13T04:09:29.048Z,72.63
2023-02-13T04:12:06.737Z,72.47
2023-02-13T04:14:40.989Z,72.01
2023-02-13T04:17:56.919Z,72.32
2023-02-13T04:20:28.685Z,72.10
2023-02-13T04:22:56.961Z,72.05
2023-02-13T04:25:25.453Z,72.38
2023-02-13T04:27:53.729Z,72.57
2023-02-13T04:30:22.114Z,72.47
2023-02-13T04:32:52.043Z,72.73
2023-02-13T04:35:20.522Z,72.83
2023-02-13T04:37:48.707Z,72.03
2023-02-13T04:40:18.567Z,72.33
2023-02-13T04:42:50.787Z,72.15
2023-02-13T04:45:19.098Z,71.81
2023-02-13T04:47:52.439Z,71.94
2023-02-13T04:50:22.006Z,71.97
2023-02-13T04:52:55.788Z,71.87
2023-02-13T04:55:25.832Z,71.61
2023-02-13T04:57:55.725Z,71.60
2023-02-13T05:00:26.789Z,71.45
2023-02-13T05:03:04.476Z,71.37
2023-02-13T05:05:32.966Z,71.45
2023-02-13T05:08:01.562Z,71.33
2023-02-13T05:10:30.544Z,71.29
2023-02-13T05:12:59.608Z,71.13
2023-02-13T05:15:27.864Z,71.01
2023-02-13T05:17:56.223Z,71.39
2023-02-13T05:20:24.905Z,71.63
2023-02-13T05:23:13.148Z,72.38
2023-02-13T05:25:42.243Z,72.58
2023-02-13T05:28:30.700Z,72.57
2023-02-13T05:30:59.441Z,72.29
2023-02-13T05:33:28.074Z,72.34
2023-02-13T05:35:56.457Z,73.06
2023-02-13T05:38:24.741Z,72.76
2023-02-13T05:40:53.027Z,72.62
2023-02-13T05:43:21.713Z,72.85
2023-02-13T05:45:49.995Z,72.64
2023-02-13T05:48:18.379Z,73.04
2023-02-13T05:50:48.092Z,73.04
2023-02-13T05:53:16.484Z,72.90
2023-02-13T05:55:44.863Z,73.12
2023-02-13T05:58:13.449Z,72.94
2023-02-13T06:00:41.938Z,72.74
2023-02-13T06:03:10.319Z,72.44
2023-02-13T06:05:38.702Z,72.08
2023-02-13T06:08:07.194Z,71.91
2023-02-13T06:10:35.472Z,71.72
2023-02-13T06:13:04.091Z,71.80
2023-02-13T06:15:32.551Z,72.42
2023-02-13T06:18:01.446Z,72.48
2023-02-13T06:20:29.826Z,72.25
2023-02-13T06:22:58.294Z,72.19
2023-02-13T06:25:26.698Z,72.37
2023-02-13T06:27:55.596Z,72.07
2023-02-13T06:30:24.003Z,71.69
2023-02-13T06:32:52.981Z,71.88
2023-02-13T06:35:21.569Z,72.10
2023-02-13T06:37:50.053Z,72.02
2023-02-13T06:40:19.031Z,71.75
2023-02-13T06:42:47.449Z,72.10
2023-02-13T06:45:15.924Z,71.86
2023-02-13T06:47:46.007Z,71.88
2023-02-13T06:50:17.008Z,71.85
2023-02-13T06:52:50.127Z,71.83
2023-02-13T06:55:20.905Z,71.65
2023-02-13T06:57:49.620Z,71.80
2023-02-13T07:00:19.046Z,71.85
2023-02-13T07:02:48.065Z,71.64
2023-02-13T07:05:17.951Z,71.30
2023-02-13T07:07:46.752Z,71.29
2023-02-13T07:10:15.121Z,71.27
2023-02-13T07:12:44.601Z,71.15
2023-02-13T07:15:14.174Z,71.08
2023-02-13T07:17:42.433Z,71.13
2023-02-13T07:20:11.296Z,71.00
2023-02-13T07:22:39.603Z,70.93
2023-02-13T07:25:08.499Z,70.62
2023-02-13T07:27:36.792Z,70.75
2023-02-13T07:30:06.243Z,70.72
2023-02-13T07:32:34.435Z,70.59
2023-02-13T07:35:03.320Z,69.94
2023-02-13T07:37:32.163Z,70.22
2023-02-13T07:40:00.961Z,69.91
2023-02-13T07:42:32.733Z,69.29
2023-02-13T07:45:01.614Z,69.29
2023-02-13T07:47:29.806Z,68.89
2023-02-13T07:49:58.084Z,68.68
2023-02-13T07:52:26.870Z,68.40
2023-02-13T07:54:55.064Z,68.34
2023-02-13T07:57:23.231Z,68.44
2023-02-13T07:59:51.619Z,68.03
2023-02-13T08:02:20.002Z,67.37
2023-02-13T08:04:48.597Z,67.11
2023-02-13T08:07:18.603Z,67.03
2023-02-13T08:10:06.132Z,66.93
2023-02-13T08:12:36.767Z,66.60
2023-02-13T08:15:13.815Z,66.31
2023-02-13T08:17:44.839Z,65.88
2023-02-13T08:20:13.185Z,65.51
2023-02-13T08:22:41.460Z,65.20
2023-02-13T08:25:09.845Z,64.98
2023-02-13T08:27:38.940Z,64.33
2023-02-13T08:30:09.138Z,63.19
2023-02-13T08:32:53.089Z,62.47
2023-02-13T08:35:27.020Z,62.45
2023-02-13T08:37:55.944Z,62.30
2023-02-13T08:40:25.490Z,62.26
2023-02-13T08:43:02.408Z,62.09
2023-02-13T08:45:31.676Z,62.23
2023-02-13T08:48:00.729Z,61.90
2023-02-13T08:50:28.989Z,60.97
2023-02-13T08:52:58.501Z,60.03
2023-02-13T08:55:28.585Z,60.20
2023-02-13T08:57:59.303Z,60.15
2023-02-13T09:00:28.270Z,59.00
2023-02-13T09:03:01.869Z,58.34
2023-02-13T09:05:31.813Z,58.56
2023-02-13T09:08:03.010Z,57.84
2023-02-13T09:10:32.646Z,57.69
2023-02-13T09:13:04.139Z,56.34
2023-02-13T09:15:32.890Z,56.14
2023-02-13T09:18:01.479Z,55.01
2023-02-13T09:20:29.871Z,54.27
2023-02-13T09:22:58.356Z,52.51
2023-02-13T09:25:27.152Z,48.56
2023-02-13T09:27:55.652Z,47.78
2023-02-13T09:30:24.145Z,46.10
2023-02-13T09:32:54.788Z,44.33
2023-02-13T09:35:24.409Z,43.99
2023-02-13T09:37:52.653Z,43.74
2023-02-13T09:40:23.792Z,43.73
2023-02-13T09:42:53.819Z,43.70
2023-02-13T09:45:22.632Z,43.33
2023-02-13T09:47:51.205Z,41.83
2023-02-13T09:50:29.827Z,42.13
2023-02-13T09:52:59.962Z,41.75
2023-02-13T09:55:40.304Z,40.68
2023-02-13T09:58:16.462Z,40.42
2023-02-13T10:00:51.502Z,38.51
2023-02-13T10:03:29.092Z,38.06
2023-02-13T10:06:08.063Z,38.82
2023-02-13T10:08:54.942Z,38.56
2023-02-13T10:11:29.558Z,37.05
2023-02-13T10:14:39.818Z,37.96
2023-02-13T10:17:20.367Z,38.42
2023-02-13T10:19:57.335Z,36.91
2023-02-13T10:22:38.621Z,37.64
2023-02-13T10:25:14.982Z,38.68
2023-02-13T10:28:11.588Z,39.92
2023-02-13T10:30:50.710Z,39.45
2023-02-13T10:33:26.961Z,38.68
2023-02-13T10:36:18.412Z,38.18
2023-02-13T10:38:56.119Z,36.72
2023-02-13T10:41:50.901Z,35.64
2023-02-13T10:44:25.529Z,35.97
2023-02-13T10:47:29.725Z,36.99
2023-02-13T10:50:16.541Z,38.27
2023-02-13T10:52:57.605Z,39.01
2023-02-13T10:55:25.885Z,40.00
2023-02-13T10:58:59.359Z,39.78
2023-02-13T11:01:53.893Z,40.95
2023-02-13T11:04:22.747Z,41.85
2023-02-13T11:07:00.322Z,42.08
2023-02-13T11:09:31.062Z,42.38
2023-02-13T11:11:59.866Z,41.84
2023-02-13T11:14:28.755Z,41.77
2023-02-13T11:17:12.589Z,41.25
2023-02-13T11:19:53.917Z,40.38
2023-02-13T11:22:35.762Z,37.45
2023-02-13T11:25:08.856Z,36.02
2023-02-13T11:27:39.996Z,37.90
2023-02-13T11:30:31.509Z,37.59
2023-02-13T11:33:01.632Z,36.11
2023-02-13T11:35:33.404Z,36.47
2023-02-13T11:38:10.582Z,37.22
2023-02-13T11:40:39.327Z,37.54
2023-02-13T11:43:14.672Z,37.36
2023-02-13T11:45:43.713Z,38.23
2023-02-13T11:48:22.841Z,38.71
2023-02-13T11:50:53.895Z,39.93
2023-02-13T11:53:27.122Z,40.61
2023-02-13T11:56:11.973Z,42.07
2023-02-13T11:58:41.553Z,43.88
2023-02-13T12:01:21.934Z,45.17
2023-02-13T12:04:06.671Z,45.97
2023-02-13T12:06:39.958Z,46.70
2023-02-13T12:09:15.980Z,47.75
2023-02-13T12:11:51.378Z,48.85
2023-02-13T12:14:27.435Z,49.38
2023-02-13T12:17:05.743Z,50.27
2023-02-13T12:19:49.633Z,51.25
2023-02-13T12:22:33.816Z,51.65
2023-02-13T12:25:21.149Z,52.20
2023-02-13T12:28:19.242Z,52.54
2023-02-13T12:30:50.507Z,52.17
2023-02-13T12:33:21.912Z,52.49
2023-02-13T12:35:58.998Z,53.10
2023-02-13T12:38:47.462Z,53.60
2023-02-13T12:41:40.171Z,53.97
2023-02-13T12:44:16.028Z,54.09
2023-02-13T12:46:58.502Z,54.06
2023-02-13T12:49:44.832Z,54.04
2023-02-13T12:52:51.178Z,54.05
2023-02-13T12:55:37.674Z,54.37
2023-02-13T12:58:37.205Z,54.02
2023-02-13T13:01:43.723Z,54.61
2023-02-13T13:04:35.541Z,55.11
2023-02-13T13:07:22.858Z,55.24
2023-02-13T13:10:16.363Z,55.82
2023-02-13T13:12:56.882Z,56.02
2023-02-13T13:15:28.136Z,56.24
2023-02-13T13:17:56.515Z,56.15
2023-02-13T13:20:52.139Z,56.19
2023-02-13T13:23:30.695Z,56.03
2023-02-13T13:26:21.495Z,55.98
2023-02-13T13:28:53.555Z,55.68
2023-02-13T13:31:26.474Z,55.66
2023-02-13T13:34:01.123Z,55.84
2023-02-13T13:36:51.296Z,55.79
2023-02-13T13:39:26.914Z,55.93
2023-02-13T13:42:28.177Z,56.41
2023-02-13T13:44:56.770Z,56.67
2023-02-13T13:47:47.184Z,56.68
2023-02-13T13:50:24.756Z,57.23
2023-02-13T13:53:08.486Z,57.27
2023-02-13T13:56:05.961Z,57.45
2023-02-13T13:58:45.264Z,56.96
2023-02-13T14:01:26.790Z,57.25
2023-02-13T14:04:33.204Z,57.34
2023-02-13T14:07:01.793Z,57.33
2023-02-13T14:09:45.576Z,57.85
2023-02-13T14:12:47.171Z,58.12
2023-02-13T14:15:34.140Z,57.70
2023-02-13T14:18:26.196Z,57.82
2023-02-13T14:20:59.569Z,58.04
2023-02-13T14:23:34.069Z,58.35
2023-02-13T14:26:17.587Z,58.94
2023-02-13T14:28:49.008Z,59.03
2023-02-13T14:31:23.306Z,59.46
2023-02-13T14:34:24.453Z,59.62
2023-02-13T14:37:11.363Z,59.80
2023-02-13T14:39:42.353Z,59.68
2023-02-13T14:42:30.707Z,60.14
2023-02-13T14:45:01.953Z,60.35
2023-02-13T14:47:33.655Z,60.06
2023-02-13T14:50:05.020Z,60.26
2023-02-13T14:52:37.423Z,60.45
2023-02-13T14:55:17.259Z,60.40
2023-02-13T14:57:50.628Z,60.49
2023-02-13T15:00:32.032Z,60.22
2023-02-13T15:03:11.755Z,60.37
2023-02-13T15:05:40.410Z,60.61
2023-02-13T15:08:14.867Z,60.98
2023-02-13T15:10:49.601Z,61.58
2023-02-13T15:13:18.701Z,61.62
2023-02-13T15:16:00.746Z,62.52
2023-02-13T15:18:41.872Z,62.54
2023-02-13T15:21:16.503Z,62.07
2023-02-13T15:23:45.098Z,62.41
2023-02-13T15:26:23.836Z,62.75
2023-02-13T15:29:07.410Z,62.57
2023-02-13T15:31:39.700Z,62.76
2023-02-13T15:34:36.207Z,62.77
2023-02-13T15:37:04.718Z,63.01
2023-02-13T15:39:33.113Z,62.70
2023-02-13T15:42:03.744Z,62.70
2023-02-13T15:44:37.453Z,62.44
2023-02-13T15:47:26.815Z,62.11
2023-02-13T15:49:55.794Z,62.31
2023-02-13T15:52:31.759Z,62.32
2023-02-13T15:55:00.249Z,62.08
2023-02-13T15:57:29.376Z,62.34
2023-02-13T16:00:01.052Z,62.24
2023-02-13T16:02:37.719Z,62.12
2023-02-13T16:05:06.922Z,61.96
2023-02-13T16:07:57.554Z,61.81
2023-02-13T16:10:32.210Z,61.74
2023-02-13T16:13:06.644Z,61.55
2023-02-13T16:15:37.437Z,61.82
2023-02-13T16:18:21.211Z,61.81
2023-02-13T16:20:54.607Z,62.00
2023-02-13T16:23:23.090Z,61.97
2023-02-13T16:25:51.586Z,62.08
2023-02-13T16:28:24.054Z,62.14
2023-02-13T16:31:00.324Z,62.78
2023-02-13T16:33:32.034Z,62.98
2023-02-13T16:36:18.376Z,63.10
2023-02-13T16:38:50.432Z,63.79
2023-02-13T16:41:31.208Z,64.19
2023-02-13T16:44:02.098Z,64.26
2023-02-13T16:46:41.702Z,64.41
2023-02-13T16:49:10.388Z,64.41
2023-02-13T16:51:41.434Z,64.48
2023-02-13T16:54:27.745Z,64.51
2023-02-13T16:57:01.022Z,64.99
2023-02-13T16:59:35.243Z,65.03
2023-02-13T17:02:12.628Z,64.83
2023-02-13T17:04:44.253Z,64.77
2023-02-13T17:07:21.878Z,64.64
2023-02-13T17:10:02.199Z,64.37
2023-02-13T17:12:35.840Z,64.51
2023-02-13T17:15:05.778Z,64.70
2023-02-13T17:17:33.956Z,65.01
2023-02-13T17:20:04.475Z,65.31
2023-02-13T17:22:39.478Z,65.90
2023-02-13T17:25:15.462Z,65.90
2023-02-13T17:27:43.746Z,66.14
2023-02-13T17:30:24.142Z,66.30
2023-02-13T17:32:59.739Z,66.90
2023-02-13T17:35:28.144Z,66.68
2023-02-13T17:37:56.323Z,67.62
2023-02-13T17:40:27.636Z,68.17
2023-02-13T17:42:57.140Z,68.91
2023-02-13T17:45:28.841Z,69.08
2023-02-13T17:48:00.850Z,68.46
2023-02-13T17:50:31.486Z,68.65
2023-02-13T17:53:19.677Z,68.31
2023-02-13T17:55:48.003Z,68.20
2023-02-13T17:58:16.241Z,67.97
2023-02-13T18:00:44.827Z,67.79
2023-02-13T18:03:13.315Z,67.56
2023-02-13T18:05:42.110Z,67.89
2023-02-13T18:08:10.606Z,67.71
2023-02-13T18:10:39.718Z,67.75
2023-02-13T18:13:08.595Z,68.28
2023-02-13T18:15:42.529Z,68.28
2023-02-13T18:18:11.602Z,68.42
2023-02-13T18:20:40.087Z,68.34
2023-02-13T18:23:09.398Z,68.56
2023-02-13T18:25:37.577Z,68.41
2023-02-13T18:28:06.270Z,67.87
2023-02-13T18:30:34.657Z,67.76
2023-02-13T18:33:05.211Z,67.63
2023-02-13T18:35:35.014Z,67.67
2023-02-13T18:38:03.593Z,67.49
2023-02-13T18:40:31.881Z,67.35
2023-02-13T18:43:01.076Z,67.38
2023-02-13T18:45:29.356Z,67.34
2023-02-13T18:47:57.638Z,67.55
2023-02-13T18:50:26.333Z,67.32
2023-02-13T18:52:54.920Z,66.98
2023-02-13T18:55:23.101Z,67.02
2023-02-13T18:57:54.158Z,67.24
2023-02-13T19:00:23.664Z,67.69
2023-02-13T19:02:53.073Z,67.92
2023-02-13T19:05:21.448Z,67.97
2023-02-13T19:07:49.633Z,68.75
2023-02-13T19:10:18.113Z,69.14
2023-02-13T19:12:46.810Z,69.31
2023-02-13T19:15:16.642Z,69.83
2023-02-13T19:17:46.037Z,69.72
2023-02-13T19:20:16.665Z,70.14
2023-02-13T19:22:45.361Z,70.20
2023-02-13T19:25:13.743Z,69.99
2023-02-13T19:27:42.033Z,70.12
2023-02-13T19:30:12.619Z,69.77
2023-02-13T19:32:41.663Z,69.68
2023-02-13T19:35:09.957Z,69.40
2023-02-13T19:37:43.849Z,68.96
2023-02-13T19:40:14.215Z,68.70
2023-02-13T19:42:42.893Z,68.66
2023-02-13T19:45:11.649Z,68.49
2023-02-13T19:47:40.054Z,68.15
2023-02-13T19:50:09.879Z,67.91
2023-02-13T19:52:38.663Z,67.62
2023-02-13T19:55:07.231Z,67.65
2023-02-13T19:57:36.089Z,67.52
2023-02-13T20:00:06.180Z,67.19
2023-02-13T20:02:40.442Z,66.94
2023-02-13T20:05:10.125Z,66.68
2023-02-13T20:07:38.398Z,66.65
2023-02-13T20:10:09.806Z,66.47
2023-02-13T20:12:39.326Z,66.37
2023-02-13T20:15:08.478Z,66.32
2023-02-13T20:17:38.067Z,66.30
2023-02-13T20:20:07.333Z,66.45
2023-02-13T20:22:35.564Z,66.32
2023-02-13T20:25:05.137Z,66.52
2023-02-13T20:30:11.462Z,66.50
2023-02-13T20:32:40.056Z,66.49
2023-02-13T20:35:08.761Z,66.37
2023-02-13T20:37:37.429Z,66.41
2023-02-13T20:40:06.260Z,66.53
2023-02-13T20:42:35.210Z,66.41
2023-02-13T20:45:03.698Z,66.53
2023-02-13T20:47:32.293Z,66.06
2023-02-13T20:50:00.873Z,66.00
2023-02-13T20:52:29.156Z,65.82
2023-02-13T20:54:58.661Z,65.56
2023-02-13T20:57:27.868Z,65.24
2023-02-13T20:59:56.463Z,64.92
2023-02-13T21:02:25.574Z,64.77
2023-02-13T21:04:53.841Z,64.73
2023-02-13T21:07:22.230Z,64.69
2023-02-13T21:09:50.514Z,64.60
2023-02-13T21:12:18.930Z,64.49
2023-02-13T21:14:47.578Z,64.49
2023-02-13T21:17:15.757Z,64.30
2023-02-13T21:19:44.041Z,64.08
2023-02-13T21:22:12.576Z,64.17
2023-02-13T21:24:42.965Z,64.08
2023-02-13T21:27:11.870Z,64.11
2023-02-13T21:29:40.236Z,64.08
2023-02-13T21:32:08.675Z,64.30
2023-02-13T21:34:36.913Z,64.01
2023-02-13T21:37:05.185Z,64.19
2023-02-13T21:39:33.578Z,64.11
2023-02-13T21:42:02.133Z,64.00
2023-02-13T21:44:30.557Z,64.02
2023-02-13T21:46:58.775Z,64.21
2023-02-13T21:49:27.425Z,64.07
2023-02-13T21:51:55.707Z,64.40
2023-02-13T21:54:24.123Z,64.29
2023-02-13T21:56:52.382Z,64.52
2023-02-13T21:59:23.523Z,64.74
2023-02-13T22:01:54.628Z,65.04
2023-02-13T22:04:23.598Z,65.36
2023-02-13T22:06:52.579Z,65.64
2023-02-13T22:09:22.537Z,65.77
2023-02-13T22:11:53.649Z,65.70
2023-02-13T22:14:22.635Z,65.88
2023-02-13T22:16:51.997Z,65.85
2023-02-13T22:19:20.546Z,66.12
2023-02-13T22:21:49.124Z,66.09
2023-02-13T22:24:17.608Z,65.96
2023-02-13T22:26:46.090Z,66.17
2023-02-13T22:29:17.780Z,66.17
2023-02-13T22:31:46.756Z,66.24
2023-02-13T22:34:15.416Z,66.13
2023-02-13T22:36:43.727Z,66.36
2023-02-13T22:39:14.263Z,65.97
2023-02-13T22:41:45.844Z,65.85
2023-02-13T22:44:14.314Z,65.45
2023-02-13T22:46:43.055Z,65.21
2023-02-13T22:49:11.889Z,64.89
2023-02-13T22:51:40.367Z,64.44
2023-02-13T22:54:10.597Z,63.80
2023-02-13T22:56:38.771Z,63.60
2023-02-13T22:59:07.161Z,63.36
2023-02-13T23:01:35.436Z,62.81
2023-02-13T23:04:04.175Z,62.80
2023-02-13T23:06:32.818Z,62.27
2023-02-13T23:09:01.008Z,61.85
2023-02-13T23:11:48.008Z,61.61
2023-02-13T23:14:16.503Z,61.54
2023-02-13T23:17:03.295Z,61.11
2023-02-13T23:19:32.203Z,60.95
2023-02-13T23:22:00.580Z,60.58
2023-02-13T23:24:30.360Z,60.36
2023-02-13T23:26:59.916Z,60.09
2023-02-13T23:29:28.296Z,60.43
2023-02-13T23:31:56.717Z,60.29
2023-02-13T23:34:25.365Z,60.35
2023-02-13T23:36:53.762Z,60.28
2023-02-13T23:39:21.929Z,60.20
2023-02-13T23:41:50.621Z,59.97
2023-02-13T23:44:19.528Z,59.86
2023-02-13T23:46:47.966Z,59.83
2023-02-13T23:49:16.488Z,59.73
2023-02-13T23:51:45.180Z,59.98
2023-02-13T23:54:24.033Z,59.81
2023-02-13T23:56:54.441Z,59.76
2023-02-13T23:59:24.256Z,59.79
